sensor_id;sensor_type;location;lat;lon;timestamp;pressure;altitude;pressure_sealevel;temperature;humidity
18569;BME280;14780;48.316;-1.050;2023-06-22T00:01:18;99197.53;;;26.98;43.61
18569;BME280;14780;48.316;-1.050;2023-06-22T00:04:03;99189.91;;;26.95;43.57
18569;BME280;14780;48.316;-1.050;2023-06-22T00:06:48;99180.59;;;26.91;43.94
18569;BME280;14780;48.316;-1.050;2023-06-22T00:09:33;99188.94;;;26.81;43.87
18569;BME280;14780;48.316;-1.050;2023-06-22T00:12:17;99189.41;;;26.88;43.79
18569;BME280;14780;48.316;-1.050;2023-06-22T00:15:02;99188.34;;;26.84;43.82
18569;BME280;14780;48.316;-1.050;2023-06-22T00:17:47;99188.31;;;26.89;43.75
18569;BME280;14780;48.316;-1.050;2023-06-22T00:20:32;99186.06;;;26.91;43.88
18569;BME280;14780;48.316;-1.050;2023-06-22T00:23:17;99178.47;;;26.83;43.98
18569;BME280;14780;48.316;-1.050;2023-06-22T00:26:02;99174.56;;;26.89;43.75
18569;BME280;14780;48.316;-1.050;2023-06-22T00:28:48;99169.13;;;26.84;44.11
18569;BME280;14780;48.316;-1.050;2023-06-22T00:31:32;99174.34;;;26.86;44.00
18569;BME280;14780;48.316;-1.050;2023-06-22T00:34:17;99171.06;;;26.84;44.10
18569;BME280;14780;48.316;-1.050;2023-06-22T00:37:02;99157.63;;;26.82;44.27
18569;BME280;14780;48.316;-1.050;2023-06-22T00:39:46;99155.44;;;26.79;44.07
18569;BME280;14780;48.316;-1.050;2023-06-22T00:42:31;99158.72;;;26.81;44.22
18569;BME280;14780;48.316;-1.050;2023-06-22T00:45:16;99157.66;;;26.77;44.29
18569;BME280;14780;48.316;-1.050;2023-06-22T00:48:01;99152.66;;;26.84;43.98
18569;BME280;14780;48.316;-1.050;2023-06-22T00:50:45;99152.13;;;26.82;44.36
18569;BME280;14780;48.316;-1.050;2023-06-22T00:53:35;99145.25;;;26.85;44.09
18569;BME280;14780;48.316;-1.050;2023-06-22T00:56:22;99137.81;;;26.85;44.10
18569;BME280;14780;48.316;-1.050;2023-06-22T00:59:09;99131.28;;;26.81;44.25
18569;BME280;14780;48.316;-1.050;2023-06-22T01:01:56;99128.28;;;26.78;44.58
18569;BME280;14780;48.316;-1.050;2023-06-22T01:04:42;99142.53;;;26.80;44.39
18569;BME280;14780;48.316;-1.050;2023-06-22T01:07:31;99142.53;;;26.80;44.52
18569;BME280;14780;48.316;-1.050;2023-06-22T01:10:35;99140.06;;;26.78;44.39
18569;BME280;14780;48.316;-1.050;2023-06-22T01:16:40;99140.38;;;26.77;44.63
18569;BME280;14780;48.316;-1.050;2023-06-22T01:19:39;99138.44;;;26.77;44.60
18569;BME280;14780;48.316;-1.050;2023-06-22T01:22:31;99135.22;;;26.70;44.70
18569;BME280;14780;48.316;-1.050;2023-06-22T01:25:26;99142.41;;;26.66;44.96
18569;BME280;14780;48.316;-1.050;2023-06-22T01:31:28;99144.84;;;26.68;44.77
18569;BME280;14780;48.316;-1.050;2023-06-22T01:34:14;99135.81;;;26.67;44.92
18569;BME280;14780;48.316;-1.050;2023-06-22T01:37:01;99133.59;;;26.69;44.82
18569;BME280;14780;48.316;-1.050;2023-06-22T01:39:46;99130.25;;;26.72;44.60
18569;BME280;14780;48.316;-1.050;2023-06-22T01:42:32;99124.28;;;26.65;44.74
18569;BME280;14780;48.316;-1.050;2023-06-22T01:45:19;99125.94;;;26.66;44.66
18569;BME280;14780;48.316;-1.050;2023-06-22T01:48:04;99127.03;;;26.65;44.78
18569;BME280;14780;48.316;-1.050;2023-06-22T01:50:49;99121.25;;;26.67;44.60
18569;BME280;14780;48.316;-1.050;2023-06-22T01:53:34;99113.31;;;26.65;44.63
18569;BME280;14780;48.316;-1.050;2023-06-22T01:56:18;99116.00;;;26.70;44.58
18569;BME280;14780;48.316;-1.050;2023-06-22T01:59:56;99110.28;;;26.67;44.76
18569;BME280;14780;48.316;-1.050;2023-06-22T02:02:39;99114.13;;;26.66;44.78
18569;BME280;14780;48.316;-1.050;2023-06-22T02:05:34;99109.00;;;26.59;44.94
18569;BME280;14780;48.316;-1.050;2023-06-22T02:08:25;99110.03;;;26.63;44.90
18569;BME280;14780;48.316;-1.050;2023-06-22T02:11:14;99098.03;;;26.59;44.87
18569;BME280;14780;48.316;-1.050;2023-06-22T02:13:59;99101.31;;;26.56;44.73
18569;BME280;14780;48.316;-1.050;2023-06-22T02:16:44;99100.75;;;26.59;44.59
18569;BME280;14780;48.316;-1.050;2023-06-22T02:19:29;99095.88;;;26.51;44.90
18569;BME280;14780;48.316;-1.050;2023-06-22T02:22:18;99107.66;;;26.52;44.90
18569;BME280;14780;48.316;-1.050;2023-06-22T02:25:03;99098.59;;;26.56;44.74
18569;BME280;14780;48.316;-1.050;2023-06-22T02:27:48;99106.84;;;26.51;44.87
18569;BME280;14780;48.316;-1.050;2023-06-22T02:30:33;99099.41;;;26.57;44.79
18569;BME280;14780;48.316;-1.050;2023-06-22T02:33:17;99099.41;;;26.57;44.64
18569;BME280;14780;48.316;-1.050;2023-06-22T02:36:02;99103.03;;;26.52;44.70
18569;BME280;14780;48.316;-1.050;2023-06-22T02:38:49;99105.78;;;26.52;44.73
18569;BME280;14780;48.316;-1.050;2023-06-22T02:41:35;99105.78;;;26.47;44.83
18569;BME280;14780;48.316;-1.050;2023-06-22T02:44:20;99116.16;;;26.50;44.87
18569;BME280;14780;48.316;-1.050;2023-06-22T02:47:05;99115.38;;;26.50;44.60
18569;BME280;14780;48.316;-1.050;2023-06-22T02:49:50;99109.63;;;26.46;44.80
18569;BME280;14780;48.316;-1.050;2023-06-22T02:52:34;99111.84;;;26.44;44.59
18569;BME280;14780;48.316;-1.050;2023-06-22T02:55:19;99108.28;;;26.44;44.59
18569;BME280;14780;48.316;-1.050;2023-06-22T02:58:04;99113.19;;;26.47;44.68
18569;BME280;14780;48.316;-1.050;2023-06-22T03:00:49;99109.13;;;26.44;44.67
18569;BME280;14780;48.316;-1.050;2023-06-22T03:03:37;99117.34;;;26.44;44.46
18569;BME280;14780;48.316;-1.050;2023-06-22T03:06:22;99110.78;;;26.40;44.51
18569;BME280;14780;48.316;-1.050;2023-06-22T03:09:07;99109.41;;;26.43;44.58
18569;BME280;14780;48.316;-1.050;2023-06-22T03:11:52;99118.16;;;26.45;44.40
18569;BME280;14780;48.316;-1.050;2023-06-22T03:14:37;99114.34;;;26.41;44.51
18569;BME280;14780;48.316;-1.050;2023-06-22T03:17:23;99112.69;;;26.40;44.59
18569;BME280;14780;48.316;-1.050;2023-06-22T03:20:09;99102.03;;;26.38;44.60
18569;BME280;14780;48.316;-1.050;2023-06-22T03:22:57;99103.06;;;26.42;44.32
18569;BME280;14780;48.316;-1.050;2023-06-22T03:25:42;99103.91;;;26.43;44.26
18569;BME280;14780;48.316;-1.050;2023-06-22T03:28:28;99099.28;;;26.38;44.40
18569;BME280;14780;48.316;-1.050;2023-06-22T03:31:14;99103.06;;;26.42;44.29
18569;BME280;14780;48.316;-1.050;2023-06-22T03:33:59;99103.69;;;26.34;44.26
18569;BME280;14780;48.316;-1.050;2023-06-22T03:36:44;99109.16;;;26.39;44.19
18569;BME280;14780;48.316;-1.050;2023-06-22T03:39:30;99104.22;;;26.36;44.30
18569;BME280;14780;48.316;-1.050;2023-06-22T03:42:15;99104.78;;;26.38;44.20
18569;BME280;14780;48.316;-1.050;2023-06-22T03:44:59;99090.34;;;26.28;44.16
18569;BME280;14780;48.316;-1.050;2023-06-22T03:47:45;99099.91;;;26.30;44.25
18569;BME280;14780;48.316;-1.050;2023-06-22T03:50:30;99100.16;;;26.34;43.96
18569;BME280;14780;48.316;-1.050;2023-06-22T03:53:15;99096.63;;;26.28;44.19
18569;BME280;14780;48.316;-1.050;2023-06-22T03:56:00;99103.69;;;26.34;44.14
18569;BME280;14780;48.316;-1.050;2023-06-22T03:58:46;99102.66;;;26.30;44.16
18569;BME280;14780;48.316;-1.050;2023-06-22T04:01:30;99108.66;;;26.32;44.25
18569;BME280;14780;48.316;-1.050;2023-06-22T04:04:15;99105.41;;;26.30;44.02
18569;BME280;14780;48.316;-1.050;2023-06-22T04:06:59;99112.75;;;26.35;43.75
18569;BME280;14780;48.316;-1.050;2023-06-22T04:09:44;99113.66;;;26.25;44.22
18569;BME280;14780;48.316;-1.050;2023-06-22T04:12:29;99114.44;;;26.31;43.86
18569;BME280;14780;48.316;-1.050;2023-06-22T04:15:13;99125.22;;;26.22;44.14
18569;BME280;14780;48.316;-1.050;2023-06-22T04:17:58;99120.19;;;26.29;43.80
18569;BME280;14780;48.316;-1.050;2023-06-22T04:20:42;99124.59;;;26.30;43.77
18569;BME280;14780;48.316;-1.050;2023-06-22T04:23:29;99128.44;;;26.29;43.87
18569;BME280;14780;48.316;-1.050;2023-06-22T04:26:14;99126.00;;;26.28;43.98
18569;BME280;14780;48.316;-1.050;2023-06-22T04:28:58;99127.34;;;26.30;43.99
18569;BME280;14780;48.316;-1.050;2023-06-22T04:31:43;99127.41;;;26.20;44.14
18569;BME280;14780;48.316;-1.050;2023-06-22T04:34:28;99129.38;;;26.15;44.28
18569;BME280;14780;48.316;-1.050;2023-06-22T04:37:13;99119.78;;;26.17;44.20
18569;BME280;14780;48.316;-1.050;2023-06-22T04:40:00;99131.50;;;26.23;44.06
18569;BME280;14780;48.316;-1.050;2023-06-22T04:42:45;99120.63;;;26.13;44.17
18569;BME280;14780;48.316;-1.050;2023-06-22T04:45:37;99133.75;;;26.16;44.12
18569;BME280;14780;48.316;-1.050;2023-06-22T04:48:22;99134.63;;;26.11;44.28
18569;BME280;14780;48.316;-1.050;2023-06-22T04:51:07;99141.75;;;26.12;44.09
18569;BME280;14780;48.316;-1.050;2023-06-22T04:53:52;99157.63;;;26.15;43.98
18569;BME280;14780;48.316;-1.050;2023-06-22T04:56:45;99147.81;;;26.09;43.89
18569;BME280;14780;48.316;-1.050;2023-06-22T04:59:31;99149.69;;;26.14;43.94
18569;BME280;14780;48.316;-1.050;2023-06-22T05:02:16;99150.44;;;26.24;43.76
18569;BME280;14780;48.316;-1.050;2023-06-22T05:05:01;99152.16;;;26.15;44.05
18569;BME280;14780;48.316;-1.050;2023-06-22T05:07:51;99149.41;;;26.15;43.84
18569;BME280;14780;48.316;-1.050;2023-06-22T05:10:44;99153.19;;;26.24;43.84
18569;BME280;14780;48.316;-1.050;2023-06-22T05:13:28;99159.22;;;26.21;43.86
18569;BME280;14780;48.316;-1.050;2023-06-22T05:16:13;99148.22;;;26.26;43.77
18569;BME280;14780;48.316;-1.050;2023-06-22T05:18:58;99158.69;;;26.19;43.79
18569;BME280;14780;48.316;-1.050;2023-06-22T05:21:42;99152.09;;;26.20;43.84
18569;BME280;14780;48.316;-1.050;2023-06-22T05:24:27;99153.72;;;26.21;43.90
18569;BME280;14780;48.316;-1.050;2023-06-22T05:27:11;99160.03;;;26.22;43.77
18569;BME280;14780;48.316;-1.050;2023-06-22T05:29:56;99158.97;;;26.18;43.83
18569;BME280;14780;48.316;-1.050;2023-06-22T05:32:41;99158.78;;;26.09;43.92
18569;BME280;14780;48.316;-1.050;2023-06-22T05:35:25;99154.94;;;26.10;44.00
18569;BME280;14780;48.316;-1.050;2023-06-22T05:38:10;99149.97;;;26.12;43.78
18569;BME280;14780;48.316;-1.050;2023-06-22T05:40:55;99155.47;;;26.07;44.05
18569;BME280;14780;48.316;-1.050;2023-06-22T05:43:40;99146.41;;;26.12;44.27
18569;BME280;14780;48.316;-1.050;2023-06-22T05:46:25;99157.06;;;26.18;43.95
18569;BME280;14780;48.316;-1.050;2023-06-22T05:49:11;99145.00;;;26.14;44.09
18569;BME280;14780;48.316;-1.050;2023-06-22T05:51:56;99148.31;;;26.16;44.21
18569;BME280;14780;48.316;-1.050;2023-06-22T05:54:41;99153.41;;;26.28;43.66
18569;BME280;14780;48.316;-1.050;2023-06-22T05:57:27;99145.44;;;26.31;44.13
18569;BME280;14780;48.316;-1.050;2023-06-22T06:00:12;99155.81;;;26.34;44.21
18569;BME280;14780;48.316;-1.050;2023-06-22T06:02:58;99146.00;;;26.28;44.80
18569;BME280;14780;48.316;-1.050;2023-06-22T06:05:47;99132.22;;;26.38;44.53
18569;BME280;14780;48.316;-1.050;2023-06-22T06:08:32;99127.53;;;26.39;44.90
18569;BME280;14780;48.316;-1.050;2023-06-22T06:11:17;99135.75;;;26.39;44.54
18569;BME280;14780;48.316;-1.050;2023-06-22T06:14:02;99132.72;;;26.40;44.55
18569;BME280;14780;48.316;-1.050;2023-06-22T06:16:49;99135.50;;;26.35;44.50
18569;BME280;14780;48.316;-1.050;2023-06-22T06:19:34;99146.25;;;26.32;44.82
18569;BME280;14780;48.316;-1.050;2023-06-22T06:22:19;99155.53;;;26.36;44.82
18569;BME280;14780;48.316;-1.050;2023-06-22T06:25:05;99158.59;;;26.29;45.04
18569;BME280;14780;48.316;-1.050;2023-06-22T06:27:51;99155.09;;;26.24;44.89
18569;BME280;14780;48.316;-1.050;2023-06-22T06:30:36;99155.97;;;26.14;44.56
18569;BME280;14780;48.316;-1.050;2023-06-22T06:33:21;99157.31;;;26.22;44.53
18569;BME280;14780;48.316;-1.050;2023-06-22T06:36:07;99157.09;;;26.13;44.26
18569;BME280;14780;48.316;-1.050;2023-06-22T06:38:53;99165.91;;;26.10;44.29
18569;BME280;14780;48.316;-1.050;2023-06-22T06:41:37;99163.69;;;26.12;44.49
18569;BME280;14780;48.316;-1.050;2023-06-22T06:44:22;99163.13;;;26.15;44.66
18569;BME280;14780;48.316;-1.050;2023-06-22T06:47:07;99168.84;;;26.19;44.56
18569;BME280;14780;48.316;-1.050;2023-06-22T06:49:52;99173.44;;;26.28;44.32
18569;BME280;14780;48.316;-1.050;2023-06-22T06:52:36;99173.53;;;26.13;44.32
18569;BME280;14780;48.316;-1.050;2023-06-22T06:55:21;99171.63;;;26.14;44.42
18569;BME280;14780;48.316;-1.050;2023-06-22T06:58:09;99181.75;;;26.13;44.71
18569;BME280;14780;48.316;-1.050;2023-06-22T07:00:57;99185.63;;;26.12;44.64
18569;BME280;14780;48.316;-1.050;2023-06-22T07:03:41;99183.22;;;26.01;44.31
18569;BME280;14780;48.316;-1.050;2023-06-22T07:06:26;99197.47;;;26.03;44.26
18569;BME280;14780;48.316;-1.050;2023-06-22T07:09:13;99197.78;;;26.01;43.62
18569;BME280;14780;48.316;-1.050;2023-06-22T07:11:58;99197.47;;;26.03;44.11
18569;BME280;14780;48.316;-1.050;2023-06-22T07:14:43;99206.53;;;25.98;43.66
18569;BME280;14780;48.316;-1.050;2023-06-22T07:17:28;99220.53;;;25.97;44.36
18569;BME280;14780;48.316;-1.050;2023-06-22T07:20:12;99219.41;;;26.03;44.29
18569;BME280;14780;48.316;-1.050;2023-06-22T07:22:58;99228.47;;;26.03;43.96
18569;BME280;14780;48.316;-1.050;2023-06-22T07:25:42;99221.09;;;25.99;44.19
18569;BME280;14780;48.316;-1.050;2023-06-22T07:28:27;99217.00;;;25.91;44.03
18569;BME280;14780;48.316;-1.050;2023-06-22T07:31:12;99226.31;;;25.95;43.66
18569;BME280;14780;48.316;-1.050;2023-06-22T07:33:57;99218.63;;;25.97;43.32
18569;BME280;14780;48.316;-1.050;2023-06-22T07:36:41;99224.69;;;25.94;43.70
18569;BME280;14780;48.316;-1.050;2023-06-22T07:39:26;99225.25;;;25.86;43.54
18569;BME280;14780;48.316;-1.050;2023-06-22T07:42:11;99227.44;;;25.89;43.58
18569;BME280;14780;48.316;-1.050;2023-06-22T07:44:56;99234.78;;;25.99;43.25
18569;BME280;14780;48.316;-1.050;2023-06-22T07:47:40;99230.44;;;25.93;43.30
18569;BME280;14780;48.316;-1.050;2023-06-22T07:50:25;99228.78;;;25.87;43.53
18569;BME280;14780;48.316;-1.050;2023-06-22T07:53:09;99240.31;;;25.84;43.58
18569;BME280;14780;48.316;-1.050;2023-06-22T07:55:54;99243.06;;;25.84;43.29
18569;BME280;14780;48.316;-1.050;2023-06-22T07:58:38;99236.72;;;25.93;43.29
18569;BME280;14780;48.316;-1.050;2023-06-22T08:01:23;99237.56;;;25.89;43.19
18569;BME280;14780;48.316;-1.050;2023-06-22T08:04:08;99243.31;;;25.87;43.36
18569;BME280;14780;48.316;-1.050;2023-06-22T08:06:53;99241.16;;;25.89;42.98
18569;BME280;14780;48.316;-1.050;2023-06-22T08:09:38;99249.38;;;25.89;43.18
18569;BME280;14780;48.316;-1.050;2023-06-22T08:12:23;99254.84;;;25.89;43.34
18569;BME280;14780;48.316;-1.050;2023-06-22T08:15:08;99258.69;;;25.88;43.25
18569;BME280;14780;48.316;-1.050;2023-06-22T08:17:54;99260.88;;;25.91;43.11
18569;BME280;14780;48.316;-1.050;2023-06-22T08:20:39;99266.34;;;25.91;43.28
18569;BME280;14780;48.316;-1.050;2023-06-22T08:23:23;99259.50;;;25.89;43.07
18569;BME280;14780;48.316;-1.050;2023-06-22T08:26:08;99257.28;;;25.96;43.33
18569;BME280;14780;48.316;-1.050;2023-06-22T08:28:52;99266.06;;;25.98;43.33
18569;BME280;14780;48.316;-1.050;2023-06-22T08:31:37;99267.38;;;26.00;43.29
18569;BME280;14780;48.316;-1.050;2023-06-22T08:34:21;99269.06;;;25.96;43.13
18569;BME280;14780;48.316;-1.050;2023-06-22T08:37:10;99262.47;;;25.97;43.03
18569;BME280;14780;48.316;-1.050;2023-06-22T08:39:55;99272.31;;;26.08;42.95
18569;BME280;14780;48.316;-1.050;2023-06-22T08:42:41;99277.81;;;25.98;42.85
18569;BME280;14780;48.316;-1.050;2023-06-22T08:45:25;99278.91;;;26.02;42.86
18569;BME280;14780;48.316;-1.050;2023-06-22T08:48:10;99274.50;;;26.06;42.83
18569;BME280;14780;48.316;-1.050;2023-06-22T08:50:55;99282.19;;;26.04;42.70
18569;BME280;14780;48.316;-1.050;2023-06-22T08:53:39;99280.78;;;26.12;43.00
18569;BME280;14780;48.316;-1.050;2023-06-22T08:56:24;99278.59;;;26.09;42.50
18569;BME280;14780;48.316;-1.050;2023-06-22T08:59:08;99286.03;;;26.08;42.72
18569;BME280;14780;48.316;-1.050;2023-06-22T09:01:53;99300.28;;;26.05;42.55
18569;BME280;14780;48.316;-1.050;2023-06-22T09:04:38;99291.53;;;26.03;42.33
18569;BME280;14780;48.316;-1.050;2023-06-22T09:07:23;99291.50;;;26.08;42.25
18569;BME280;14780;48.316;-1.050;2023-06-22T09:10:09;99294.25;;;26.08;42.15
18569;BME280;14780;48.316;-1.050;2023-06-22T09:12:54;99292.59;;;26.07;42.18
18569;BME280;14780;48.316;-1.050;2023-06-22T09:15:38;99303.88;;;26.01;41.88
18569;BME280;14780;48.316;-1.050;2023-06-22T09:18:23;99314.50;;;26.12;42.01
18569;BME280;14780;48.316;-1.050;2023-06-22T09:21:08;99310.13;;;26.16;42.19
18569;BME280;14780;48.316;-1.050;2023-06-22T09:23:53;99314.78;;;26.11;42.33
18569;BME280;14780;48.316;-1.050;2023-06-22T09:26:37;99317.81;;;26.09;41.88
18569;BME280;14780;48.316;-1.050;2023-06-22T09:29:22;99315.88;;;26.10;42.03
18569;BME280;14780;48.316;-1.050;2023-06-22T09:32:07;99318.88;;;26.18;41.79
18569;BME280;14780;48.316;-1.050;2023-06-22T09:34:52;99325.97;;;26.24;41.42
18569;BME280;14780;48.316;-1.050;2023-06-22T09:37:38;99325.69;;;26.26;41.35
18569;BME280;14780;48.316;-1.050;2023-06-22T09:40:22;99329.50;;;26.30;41.65
18569;BME280;14780;48.316;-1.050;2023-06-22T09:43:07;99340.16;;;26.36;41.46
18569;BME280;14780;48.316;-1.050;2023-06-22T09:45:52;99342.09;;;26.41;41.47
18569;BME280;14780;48.316;-1.050;2023-06-22T09:48:36;99339.59;;;26.44;41.51
18569;BME280;14780;48.316;-1.050;2023-06-22T09:51:21;99340.66;;;26.43;41.41
18569;BME280;14780;48.316;-1.050;2023-06-22T09:54:07;99343.41;;;26.48;41.92
18569;BME280;14780;48.316;-1.050;2023-06-22T09:56:52;99339.53;;;26.49;41.93
18569;BME280;14780;48.316;-1.050;2023-06-22T09:59:36;99347.78;;;26.54;41.62
18569;BME280;14780;48.316;-1.050;2023-06-22T10:02:21;99337.91;;;26.58;41.77
18569;BME280;14780;48.316;-1.050;2023-06-22T10:05:07;99341.19;;;26.55;41.98
18569;BME280;14780;48.316;-1.050;2023-06-22T10:07:52;99341.69;;;26.62;41.78
18569;BME280;14780;48.316;-1.050;2023-06-22T10:10:36;99347.72;;;26.64;41.81
18569;BME280;14780;48.316;-1.050;2023-06-22T10:13:23;99338.69;;;26.64;41.72
18569;BME280;14780;48.316;-1.050;2023-06-22T10:16:08;99347.16;;;26.67;41.86
18569;BME280;14780;48.316;-1.050;2023-06-22T10:18:52;99351.78;;;26.77;41.60
18569;BME280;14780;48.316;-1.050;2023-06-22T10:21:37;99352.59;;;26.72;41.27
18569;BME280;14780;48.316;-1.050;2023-06-22T10:24:22;99346.84;;;26.74;41.01
18569;BME280;14780;48.316;-1.050;2023-06-22T10:27:06;99358.59;;;26.79;41.26
18569;BME280;14780;48.316;-1.050;2023-06-22T10:29:51;99348.44;;;26.80;41.15
18569;BME280;14780;48.316;-1.050;2023-06-22T10:32:37;99357.81;;;26.74;41.62
18569;BME280;14780;48.316;-1.050;2023-06-22T10:35:22;99359.50;;;26.70;41.63
18569;BME280;14780;48.316;-1.050;2023-06-22T10:38:07;99357.56;;;26.70;41.59
18569;BME280;14780;48.316;-1.050;2023-06-22T10:40:52;99365.16;;;26.83;41.38
18569;BME280;14780;48.316;-1.050;2023-06-22T10:43:37;99360.31;;;26.70;42.30
18569;BME280;14780;48.316;-1.050;2023-06-22T10:46:23;99360.78;;;26.82;41.88
18569;BME280;14780;48.316;-1.050;2023-06-22T10:49:08;99357.69;;;26.89;41.67
18569;BME280;14780;48.316;-1.050;2023-06-22T10:51:53;99364.56;;;26.91;42.07
18569;BME280;14780;48.316;-1.050;2023-06-22T10:54:38;99370.06;;;26.86;42.04
18569;BME280;14780;48.316;-1.050;2023-06-22T10:57:23;99368.94;;;26.92;41.88
18569;BME280;14780;48.316;-1.050;2023-06-22T11:00:08;99370.88;;;26.92;42.10
18569;BME280;14780;48.316;-1.050;2023-06-22T11:02:53;99371.16;;;26.90;42.10
18569;BME280;14780;48.316;-1.050;2023-06-22T11:05:38;99377.19;;;26.92;41.91
18569;BME280;14780;48.316;-1.050;2023-06-22T11:08:23;99370.88;;;26.92;41.57
18569;BME280;14780;48.316;-1.050;2023-06-22T11:11:08;99373.31;;;26.93;41.31
18569;BME280;14780;48.316;-1.050;2023-06-22T11:13:53;99377.94;;;27.03;41.52
18569;BME280;14780;48.316;-1.050;2023-06-22T11:16:38;99373.50;;;27.07;41.50
18569;BME280;14780;48.316;-1.050;2023-06-22T11:19:23;99370.44;;;27.18;41.54
18569;BME280;14780;48.316;-1.050;2023-06-22T11:22:07;99370.47;;;27.08;41.71
18569;BME280;14780;48.316;-1.050;2023-06-22T11:24:52;99373.75;;;27.10;41.68
18569;BME280;14780;48.316;-1.050;2023-06-22T11:27:36;99365.19;;;27.22;41.83
18569;BME280;14780;48.316;-1.050;2023-06-22T11:30:21;99378.94;;;27.12;42.33
18569;BME280;14780;48.316;-1.050;2023-06-22T11:33:06;99362.47;;;27.17;42.69
18569;BME280;14780;48.316;-1.050;2023-06-22T11:35:50;99365.50;;;27.15;42.72
18569;BME280;14780;48.316;-1.050;2023-06-22T11:38:35;99358.56;;;27.23;42.21
18569;BME280;14780;48.316;-1.050;2023-06-22T11:41:21;99368.41;;;27.29;42.39
18569;BME280;14780;48.316;-1.050;2023-06-22T11:44:07;99372.56;;;27.26;42.27
18569;BME280;14780;48.316;-1.050;2023-06-22T11:46:52;99376.66;;;27.29;42.63
18569;BME280;14780;48.316;-1.050;2023-06-22T11:49:37;99375.34;;;27.21;42.76
18569;BME280;14780;48.316;-1.050;2023-06-22T11:52:21;99370.28;;;27.33;42.34
18569;BME280;14780;48.316;-1.050;2023-06-22T11:55:07;99383.44;;;27.36;42.19
18569;BME280;14780;48.316;-1.050;2023-06-22T11:57:55;99379.50;;;27.47;41.78
18569;BME280;14780;48.316;-1.050;2023-06-22T12:00:40;99379.50;;;27.47;41.98
18569;BME280;14780;48.316;-1.050;2023-06-22T12:03:26;99384.72;;;27.49;41.97
18569;BME280;14780;48.316;-1.050;2023-06-22T12:06:10;99378.38;;;27.53;41.91
18569;BME280;14780;48.316;-1.050;2023-06-22T12:08:55;99378.38;;;27.53;42.23
18569;BME280;14780;48.316;-1.050;2023-06-22T12:11:40;99385.22;;;27.56;42.41
18569;BME280;14780;48.316;-1.050;2023-06-22T12:14:24;99392.25;;;27.67;42.15
18569;BME280;14780;48.316;-1.050;2023-06-22T12:17:09;99395.09;;;27.57;42.30
18569;BME280;14780;48.316;-1.050;2023-06-22T12:19:54;99397.84;;;27.57;42.44
18569;BME280;14780;48.316;-1.050;2023-06-22T12:22:38;99385.78;;;27.53;42.56
18569;BME280;14780;48.316;-1.050;2023-06-22T12:25:23;99386.22;;;27.65;42.27
18569;BME280;14780;48.316;-1.050;2023-06-22T12:28:08;99384.09;;;27.57;42.49
18569;BME280;14780;48.316;-1.050;2023-06-22T12:30:53;99389.13;;;27.73;42.28
18569;BME280;14780;48.316;-1.050;2023-06-22T12:33:37;99388.59;;;27.76;42.40
18569;BME280;14780;48.316;-1.050;2023-06-22T12:36:22;99386.28;;;27.88;42.12
18569;BME280;14780;48.316;-1.050;2023-06-22T12:39:07;99392.31;;;27.90;42.06
18569;BME280;14780;48.316;-1.050;2023-06-22T12:41:51;99383.41;;;27.98;41.99
18569;BME280;14780;48.316;-1.050;2023-06-22T12:44:36;99384.44;;;28.02;42.01
18569;BME280;14780;48.316;-1.050;2023-06-22T12:47:21;99394.84;;;28.10;41.84
18569;BME280;14780;48.316;-1.050;2023-06-22T12:50:06;99400.34;;;28.10;42.03
18569;BME280;14780;48.316;-1.050;2023-06-22T12:52:51;99408.47;;;28.20;42.13
18569;BME280;14780;48.316;-1.050;2023-06-22T12:55:36;99408.75;;;28.19;41.92
18569;BME280;14780;48.316;-1.050;2023-06-22T12:58:21;99413.09;;;28.25;42.04
18569;BME280;14780;48.316;-1.050;2023-06-22T13:01:06;99418.31;;;28.26;41.96
18569;BME280;14780;48.316;-1.050;2023-06-22T13:03:50;99413.56;;;28.32;41.92
18569;BME280;14780;48.316;-1.050;2023-06-22T13:06:35;99413.81;;;28.35;41.77
18569;BME280;14780;48.316;-1.050;2023-06-22T13:09:20;99424.16;;;28.43;41.99
18569;BME280;14780;48.316;-1.050;2023-06-22T13:12:05;99419.78;;;28.42;41.96
18569;BME280;14780;48.316;-1.050;2023-06-22T13:14:50;99417.50;;;28.49;41.76
18569;BME280;14780;48.316;-1.050;2023-06-22T13:17:34;99422.03;;;28.40;41.90
18569;BME280;14780;48.316;-1.050;2023-06-22T13:20:19;99430.75;;;28.47;41.73
18569;BME280;14780;48.316;-1.050;2023-06-22T13:23:03;99430.56;;;28.39;42.04
18569;BME280;14780;48.316;-1.050;2023-06-22T13:25:48;99430.31;;;28.35;42.09
18569;BME280;14780;48.316;-1.050;2023-06-22T13:28:33;99434.59;;;28.46;41.79
18569;BME280;14780;48.316;-1.050;2023-06-22T13:31:17;99434.25;;;28.53;41.60
18569;BME280;14780;48.316;-1.050;2023-06-22T13:34:02;99434.00;;;28.49;41.56
18569;BME280;14780;48.316;-1.050;2023-06-22T13:36:47;99435.06;;;28.53;41.45
18569;BME280;14780;48.316;-1.050;2023-06-22T13:39:31;99443.25;;;28.58;41.38
18569;BME280;14780;48.316;-1.050;2023-06-22T13:42:16;99441.03;;;28.60;41.38
18569;BME280;14780;48.316;-1.050;2023-06-22T13:45:00;99439.47;;;28.54;41.13
18569;BME280;14780;48.316;-1.050;2023-06-22T13:47:45;99443.19;;;28.63;41.35
18569;BME280;14780;48.316;-1.050;2023-06-22T13:50:30;99444.22;;;28.67;41.06
18569;BME280;14780;48.316;-1.050;2023-06-22T13:53:15;99446.47;;;28.65;41.12
18569;BME280;14780;48.316;-1.050;2023-06-22T13:55:59;99446.22;;;28.62;41.16
18569;BME280;14780;48.316;-1.050;2023-06-22T13:58:44;99449.06;;;28.57;40.86
18569;BME280;14780;48.316;-1.050;2023-06-22T14:01:29;99451.16;;;28.65;40.88
18569;BME280;14780;48.316;-1.050;2023-06-22T14:04:14;99451.91;;;28.70;40.61
18569;BME280;14780;48.316;-1.050;2023-06-22T14:06:59;99457.41;;;28.70;40.45
18569;BME280;14780;48.316;-1.050;2023-06-22T14:09:44;99450.94;;;28.61;40.44
18569;BME280;14780;48.316;-1.050;2023-06-22T14:12:29;99460.53;;;28.64;40.10
18569;BME280;14780;48.316;-1.050;2023-06-22T14:15:13;99462.47;;;28.63;40.20
18569;BME280;14780;48.316;-1.050;2023-06-22T14:17:58;99461.56;;;28.68;39.76
18569;BME280;14780;48.316;-1.050;2023-06-22T14:20:42;99465.69;;;28.70;39.82
18569;BME280;14780;48.316;-1.050;2023-06-22T14:23:27;99456.91;;;28.68;40.00
18569;BME280;14780;48.316;-1.050;2023-06-22T14:26:12;99455.41;;;28.76;39.13
18569;BME280;14780;48.316;-1.050;2023-06-22T14:28:57;99457.88;;;28.77;39.78
18569;BME280;14780;48.316;-1.050;2023-06-22T14:31:46;99461.44;;;28.77;39.36